Time;durP1;ratioP1;P1;durP2;ratioP2;P2;SDS_P1;SDS_P2;PMS_P1;PMS_P2;Temp;Humidity;BMP_temperature;BMP_pressure;BME280_temperature;BME280_humidity;BME280_pressure;Samples;Min_cycle;Max_cycle;Signal;HPM_P1;HPM_P2
2020/12/26 05:17:44;;;;;;;4.90;3.50;;;-4.60;99.90;;;;;;5958558;23;20916;31
2020/12/26 05:20:09;;;;;;;5.05;3.42;;;-4.70;99.90;;;;;;4879027;29;20049;-76
2020/12/26 05:22:35;;;;;;;4.97;3.25;;;-4.70;99.90;;;;;;4896009;29;20044;-76
2020/12/26 05:25:11;;;;;;;4.93;3.08;;;-4.60;99.90;;;;;;4880675;29;20045;-76
2020/12/26 05:27:37;;;;;;;6.82;3.50;;;-4.70;99.90;;;;;;4886780;29;20025;-81
2020/12/26 05:30:05;;;;;;;7.63;3.92;;;-4.70;99.90;;;;;;4880300;29;20029;-76
2020/12/26 05:32:31;;;;;;;7.25;3.28;;;-4.70;99.90;;;;;;4887156;29;20111;-82
2020/12/26 05:35:06;;;;;;;5.28;3.15;;;-4.70;99.90;;;;;;4897471;29;20057;-75
2020/12/26 05:37:33;;;;;;;5.30;3.53;;;-4.70;99.90;;;;;;4886390;29;20036;-78
2020/12/26 05:40:02;;;;;;;6.03;3.40;;;-4.80;99.90;;;;;;4899004;29;20037;-75
2020/12/26 05:42:29;;;;;;;4.38;3.03;;;-4.80;99.90;;;;;;4893919;29;20047;-81
2020/12/26 05:45:08;;;;;;;7.63;3.85;;;-4.70;99.90;;;;;;4879055;29;20108;-77
2020/12/26 05:47:34;;;;;;;10.90;3.97;;;-4.50;99.90;;;;;;4884198;29;20066;-80
2020/12/26 05:49:59;;;;;;;6.28;3.67;;;-4.50;99.90;;;;;;4888765;29;20029;-77
2020/12/26 05:52:29;;;;;;;7.20;3.42;;;-4.50;99.90;;;;;;4893126;29;20477;-81
2020/12/26 05:54:56;;;;;;;6.82;3.78;;;-4.60;99.90;;;;;;4888871;29;20076;-88
2020/12/26 05:57:22;;;;;;;5.88;3.25;;;-4.60;99.90;;;;;;4885276;29;20067;-86
2020/12/26 05:59:50;;;;;;;6.03;3.42;;;-4.60;99.90;;;;;;4886418;29;20052;-88
2020/12/26 06:02:34;;;;;;;5.15;2.88;;;-4.70;99.90;;;;;;4895259;29;20068;-88
2020/12/26 06:05:01;;;;;;;4.88;3.40;;;-4.70;99.90;;;;;;4898010;29;20556;-81
2020/12/26 06:07:30;;;;;;;6.20;3.47;;;-4.70;99.90;;;;;;4889656;29;20039;-85
2020/12/26 06:09:58;;;;;;;5.93;3.47;;;-4.70;99.90;;;;;;4882167;29;20021;-84
2020/12/26 06:12:25;;;;;;;5.47;3.78;;;-4.70;99.90;;;;;;4894508;29;20080;-83
2020/12/26 06:14:51;;;;;;;5.38;3.40;;;-4.70;99.90;;;;;;4894007;29;20115;-85
2020/12/26 06:17:22;;;;;;;6.18;3.50;;;-4.60;99.90;;;;;;4893280;29;20059;-80
2020/12/26 06:19:53;;;;;;;;;;;-4.60;99.90;;;;;;4882731;29;20408;-77
2020/12/26 06:22:19;;;;;;;4.75;3.10;;;-4.60;99.90;;;;;;4878976;29;19923;-77
2020/12/26 06:24:46;;;;;;;7.20;3.53;;;-4.70;99.90;;;;;;4882357;29;20424;-82
2020/12/26 06:27:14;;;;;;;4.38;2.88;;;-4.70;99.90;;;;;;4888127;29;20445;-80
2020/12/26 06:29:44;;;;;;;5.07;2.92;;;-4.70;99.90;;;;;;4881599;29;20251;-82
2020/12/26 06:32:11;;;;;;;5.95;3.40;;;-4.70;99.90;;;;;;4880851;29;20485;-81
2020/12/26 06:34:40;;;;;;;5.35;2.85;;;-4.70;99.90;;;;;;4888311;29;20096;-79
2020/12/26 06:37:06;;;;;;;6.93;3.47;;;-4.80;99.90;;;;;;4879253;29;20032;-75
2020/12/26 06:39:33;;;;;;;6.30;2.78;;;-4.60;99.90;;;;;;4879041;29;20056;-75
2020/12/26 06:42:14;;;;;;;5.68;3.38;;;-4.70;99.90;;;;;;4878780;29;20477;-75
2020/12/26 06:44:40;;;;;;;;;;;-4.70;99.90;;;;;;4879148;29;20044;-75
2020/12/26 06:47:06;;;;;;;3.63;3.03;;;-4.80;99.90;;;;;;4878995;29;19908;-75
2020/12/26 06:49:32;;;;;;;5.00;2.95;;;-4.80;99.90;;;;;;4887699;29;20033;-75
2020/12/26 06:51:58;;;;;;;5.97;3.05;;;-4.80;99.90;;;;;;4881588;29;20496;-75
2020/12/26 06:54:45;;;;;;;8.35;3.05;;;-4.80;99.90;;;;;;4878672;29;20128;-79
2020/12/26 06:57:36;;;;;;;4.28;3.03;;;-4.80;99.90;;;;;;4878440;29;20033;-85
2020/12/26 07:00:23;;;;;;;5.07;3.05;;;-4.80;99.90;;;;;;4879695;29;20036;-86
2020/12/26 07:03:09;;;;;;;3.80;2.97;;;-4.80;99.90;;;;;;4879435;29;20059;-85
2020/12/26 07:05:38;;;;;;;4.05;2.75;;;-4.80;99.90;;;;;;4878796;29;20021;-86
2020/12/26 07:08:04;;;;;;;4.47;3.17;;;-4.80;99.90;;;;;;4879259;29;20040;-87
2020/12/26 07:10:34;;;;;;;6.13;3.03;;;-4.80;99.90;;;;;;4878877;29;20025;-86
2020/12/26 07:13:00;;;;;;;4.53;3.15;;;-4.70;99.90;;;;;;4886911;29;20536;-86
2020/12/26 07:15:32;;;;;;;4.20;2.97;;;-4.80;99.90;;;;;;4884043;29;20037;-79
2020/12/26 07:18:24;;;;;;;7.15;3.55;;;-4.20;99.90;;;;;;4878527;29;20037;-77
2020/12/26 07:20:54;;;;;;;3.47;2.55;;;-3.90;99.90;;;;;;4878614;29;20055;-78
2020/12/26 07:23:20;;;;;;;6.25;3.25;;;-4.10;99.90;;;;;;4878521;29;20040;-76
2020/12/26 07:25:47;;;;;;;5.35;2.85;;;-4.30;99.90;;;;;;4877392;29;20550;-76
2020/12/26 07:28:13;;;;;;;4.55;2.70;;;-4.40;99.90;;;;;;4878926;29;20025;-75
2020/12/26 07:30:39;;;;;;;6.60;2.80;;;-4.50;99.90;;;;;;4878718;29;20040;-83
2020/12/26 07:33:05;;;;;;;7.13;2.90;;;-4.60;99.90;;;;;;4878683;29;20064;-81
2020/12/26 07:35:39;;;;;;;3.88;2.58;;;-4.60;99.90;;;;;;4878416;29;20041;-81
2020/12/26 07:38:12;;;;;;;4.72;2.63;;;-4.60;99.90;;;;;;4878529;29;20021;-81
2020/12/26 07:40:40;;;;;;;4.28;2.70;;;-4.70;99.90;;;;;;4878828;29;20029;-82
2020/12/26 07:43:17;;;;;;;3.22;2.65;;;-4.70;99.90;;;;;;4878709;29;20374;-81
2020/12/26 07:45:44;;;;;;;4.63;3.05;;;-4.70;99.90;;;;;;4885746;29;20620;-81
2020/12/26 07:48:11;;;;;;;4.70;2.97;;;-4.70;99.90;;;;;;4889134;29;20044;-80
2020/12/26 07:50:39;;;;;;;4.40;2.38;;;-4.70;99.90;;;;;;4891318;29;20388;-80
2020/12/26 07:53:13;;;;;;;6.53;3.15;;;-4.70;99.90;;;;;;4897352;29;20465;-77
2020/12/26 07:55:39;;;;;;;3.50;2.67;;;-4.10;99.90;;;;;;4897139;29;20570;-75
2020/12/26 07:58:15;;;;;;;4.03;2.95;;;-3.80;99.90;;;;;;4897204;29;20033;-76
2020/12/26 08:00:42;;;;;;;4.90;2.88;;;-3.90;99.90;;;;;;4896745;29;20120;-76
2020/12/26 08:03:13;;;;;;;3.75;2.55;;;-3.90;99.90;;;;;;4897115;29;20044;-76
2020/12/26 08:05:40;;;;;;;7.18;2.83;;;-3.60;99.90;;;;;;4895959;29;20025;-77
2020/12/26 08:08:27;;;;;;;3.67;2.50;;;-3.20;99.90;;;;;;4898595;29;20060;-77
2020/12/26 08:10:59;;;;;;;5.85;2.85;;;-3.20;99.90;;;;;;4900801;29;20052;-77
2020/12/26 08:13:25;;;;;;;4.03;2.60;;;-3.50;99.90;;;;;;4896300;29;20369;-78
2020/12/26 08:16:04;;;;;;;4.22;2.58;;;-3.50;99.90;;;;;;4886857;29;20029;-79
2020/12/26 08:18:33;;;;;;;4.32;2.88;;;-3.40;99.90;;;;;;4882151;29;20140;-86
2020/12/26 08:20:59;;;;;;;4.53;2.67;;;-3.60;99.90;;;;;;4881260;29;20066;-88
2020/12/26 08:23:24;;;;;;;7.03;2.78;;;-3.90;99.90;;;;;;4893433;29;20032;-82
2020/12/26 08:25:50;;;;;;;3.00;2.38;;;-4.20;99.90;;;;;;4916311;29;20079;-83
2020/12/26 08:28:19;;;;;;;2.97;2.50;;;-4.30;99.90;;;;;;4904925;29;20099;-83
2020/12/26 08:30:51;;;;;;;4.28;2.72;;;-4.40;99.90;;;;;;4920551;29;20043;-82
2020/12/26 08:33:28;;;;;;;3.60;2.70;;;-4.50;99.90;;;;;;4919684;29;20040;-84
2020/12/26 08:36:08;;;;;;;6.28;3.20;;;-4.60;99.90;;;;;;4919975;29;20028;-80
2020/12/26 08:38:51;;;;;;;4.83;3.03;;;-4.60;99.90;;;;;;4919914;29;20032;-81
2020/12/26 08:41:18;;;;;;;3.38;2.55;;;-4.70;99.90;;;;;;4919139;29;20028;-82
2020/12/26 08:43:44;;;;;;;3.83;2.83;;;-4.70;99.90;;;;;;4918936;29;20040;-83
2020/12/26 08:46:15;;;;;;;4.40;2.60;;;-4.80;99.90;;;;;;4919112;29;20020;-86
2020/12/26 08:48:41;;;;;;;;;;;-4.80;99.90;;;;;;4919231;29;20543;-81
2020/12/26 08:51:16;;;;;;;4.97;2.80;;;-4.90;99.90;;;;;;4919343;29;19942;-86
2020/12/26 08:53:43;;;;;;;3.58;2.58;;;-5.00;99.90;;;;;;4894354;29;20021;-83
2020/12/26 08:56:08;;;;;;;3.72;2.90;;;-5.00;99.90;;;;;;4881850;29;20029;-89
2020/12/26 08:58:34;;;;;;;3.15;2.47;;;-5.10;99.90;;;;;;4881049;29;20025;-86
2020/12/26 09:01:05;;;;;;;3.72;2.55;;;-5.10;99.90;;;;;;4884034;29;20489;-93
2020/12/26 09:03:35;;;;;;;6.53;3.10;;;-5.10;99.90;;;;;;4913095;29;20051;-90
2020/12/26 09:06:04;;;;;;;5.00;2.90;;;-5.10;99.90;;;;;;4920401;29;20042;-89
2020/12/26 09:08:36;;;;;;;4.25;2.70;;;-5.10;99.90;;;;;;4921225;29;20051;-90
2020/12/26 09:11:06;;;;;;;3.58;2.65;;;-5.20;99.90;;;;;;4920167;29;20020;-79
2020/12/26 09:13:40;;;;;;;4.75;2.78;;;-5.20;99.90;;;;;;4904618;29;20284;-90
2020/12/26 09:16:16;;;;;;;4.40;3.00;;;-5.20;99.90;;;;;;4908610;29;20127;-82
2020/12/26 09:18:47;;;;;;;4.45;2.53;;;-5.20;99.90;;;;;;4914750;29;20092;-86
2020/12/26 09:21:24;;;;;;;4.30;2.90;;;-5.20;99.90;;;;;;4919125;29;20036;-74
2020/12/26 09:23:51;;;;;;;5.47;2.63;;;-5.20;99.90;;;;;;4920836;29;20061;-93
2020/12/26 09:26:26;;;;;;;3.35;2.60;;;-4.70;99.90;;;;;;4920653;29;20056;-91
2020/12/26 09:28:52;;;;;;;4.00;2.80;;;-4.90;99.90;;;;;;4919415;29;20035;-87
2020/12/26 09:31:35;;;;;;;6.93;2.97;;;-5.00;99.90;;;;;;4919231;29;20028;-85
2020/12/26 09:34:16;;;;;;;3.35;2.33;;;-5.10;99.90;;;;;;4920714;29;20159;-75
2020/12/26 09:36:42;;;;;;;4.05;2.70;;;-5.10;99.90;;;;;;4918012;29;20028;-79
2020/12/26 09:39:08;;;;;;;4.80;2.97;;;-4.90;99.90;;;;;;4918341;29;20036;-77
2020/12/26 09:41:45;;;;;;;5.22;2.45;;;-5.00;99.90;;;;;;4917683;29;20051;-80
2020/12/26 09:44:11;;;;;;;3.90;2.63;;;-5.10;99.90;;;;;;4917987;29;20059;-79
2020/12/26 09:46:39;;;;;;;6.20;3.05;;;-5.10;99.90;;;;;;4917753;29;20043;-79
2020/12/26 09:49:05;;;;;;;4.15;2.53;;;-5.10;99.90;;;;;;4918162;29;20671;-78
2020/12/26 09:51:30;;;;;;;4.22;2.72;;;-5.00;99.90;;;;;;4917760;29;20180;-79
2020/12/26 09:53:56;;;;;;;5.35;2.78;;;-5.00;99.90;;;;;;4918042;29;20071;-78
2020/12/26 09:56:22;;;;;;;4.82;2.38;;;-4.90;99.90;;;;;;4917592;29;20032;-79
2020/12/26 09:58:50;;;;;;;5.18;2.60;;;-4.90;99.90;;;;;;4890293;29;20025;-79
2020/12/26 10:01:18;;;;;;;4.28;2.65;;;-4.80;99.90;;;;;;4887298;29;20025;-80
2020/12/26 10:03:45;;;;;;;4.00;2.35;;;-4.80;99.90;;;;;;4889676;29;20037;-79
2020/12/26 10:06:20;;;;;;;5.70;2.90;;;-4.90;99.90;;;;;;4887015;29;20036;-78
2020/12/26 10:08:47;;;;;;;3.70;2.70;;;-4.80;99.90;;;;;;4890030;29;20416;-79
2020/12/26 10:11:15;;;;;;;7.80;3.38;;;-4.80;99.90;;;;;;4887183;29;20037;-77
2020/12/26 10:13:41;;;;;;;5.22;2.70;;;-4.80;99.90;;;;;;4887169;29;20091;-77
2020/12/26 10:16:08;;;;;;;6.15;3.30;;;-4.70;99.90;;;;;;4896089;29;20104;-77
2020/12/26 10:18:33;;;;;;;4.32;3.40;;;-4.70;99.90;;;;;;4896915;29;20057;-77
2020/12/26 10:20:59;;;;;;;4.57;3.15;;;-4.60;99.90;;;;;;4889098;29;20025;-77
2020/12/26 10:23:26;;;;;;;5.07;3.08;;;-4.50;99.90;;;;;;4887664;29;20057;-72
2020/12/26 10:25:51;;;;;;;6.63;3.20;;;-4.50;99.90;;;;;;4888535;29;20036;-72
2020/12/26 10:28:17;;;;;;;5.78;3.58;;;-4.40;99.90;;;;;;4885401;29;20032;-72
2020/12/26 10:30:44;;;;;;;5.22;3.40;;;-4.40;99.90;;;;;;4878535;29;20024;-72
2020/12/26 10:33:10;;;;;;;7.05;3.63;;;-4.30;99.90;;;;;;4879603;29;20033;-72
2020/12/26 10:35:35;;;;;;;4.65;3.50;;;-4.30;99.90;;;;;;4879457;29;20037;-72
2020/12/26 10:38:01;;;;;;;4.65;2.60;;;-4.30;99.90;;;;;;4879583;29;20089;-72
2020/12/26 10:40:27;;;;;;;6.50;3.38;;;-4.30;99.90;;;;;;4879621;29;20073;-72
2020/12/26 10:42:52;;;;;;;6.93;2.90;;;-4.20;99.90;;;;;;4879371;29;20489;-74
2020/12/26 10:45:18;;;;;;;5.25;3.28;;;-4.20;99.90;;;;;;4879279;29;20064;-72
2020/12/26 10:47:44;;;;;;;5.85;3.17;;;-4.20;99.90;;;;;;4879345;29;20112;-73
2020/12/26 10:50:09;;;;;;;3.92;2.67;;;-4.20;99.90;;;;;;4879163;29;20117;-73
2020/12/26 10:52:35;;;;;;;4.82;2.70;;;-4.20;99.90;;;;;;4878903;29;20544;-73
2020/12/26 10:55:01;;;;;;;6.15;3.05;;;-4.10;99.90;;;;;;4879147;29;20029;-72
2020/12/26 10:57:27;;;;;;;4.93;3.25;;;-4.10;99.90;;;;;;4879848;29;20081;-79
2020/12/26 10:59:52;;;;;;;5.05;3.28;;;-4.10;99.90;;;;;;4879310;29;20025;-83
2020/12/26 11:02:18;;;;;;;8.88;3.08;;;-4.10;99.90;;;;;;4877831;29;20072;-83
2020/12/26 11:04:44;;;;;;;6.47;3.53;;;-4.10;99.90;;;;;;4878905;29;20054;-82
2020/12/26 11:07:09;;;;;;;7.63;3.42;;;-4.10;99.90;;;;;;4879048;29;20029;-83
2020/12/26 11:09:35;;;;;;;4.13;3.05;;;-4.00;99.90;;;;;;4878845;29;20114;-82
2020/12/26 11:12:01;;;;;;;4.05;2.65;;;-4.00;99.90;;;;;;4878982;29;20073;-80
2020/12/26 11:14:27;;;;;;;4.80;2.78;;;-4.00;99.90;;;;;;4879134;29;20036;-82
2020/12/26 11:16:53;;;;;;;5.13;3.10;;;-4.00;99.90;;;;;;4878857;29;20066;-83
2020/12/26 11:19:20;;;;;;;5.07;3.22;;;-4.00;99.90;;;;;;4878841;29;20049;-81
2020/12/26 11:21:51;;;;;;;6.70;3.70;;;-4.00;99.90;;;;;;4887706;29;20029;-78
2020/12/26 11:24:17;;;;;;;6.10;3.53;;;-4.00;99.90;;;;;;4892325;29;20143;-78
2020/12/26 11:26:42;;;;;;;5.85;3.38;;;-4.10;99.90;;;;;;4890989;29;20519;-83
2020/12/26 11:29:08;;;;;;;4.55;2.72;;;-4.10;99.90;;;;;;4886622;29;20028;-82
2020/12/26 11:31:34;;;;;;;3.65;2.45;;;-4.00;99.90;;;;;;4889689;29;20033;-81
2020/12/26 11:34:00;;;;;;;5.30;3.20;;;-4.00;99.90;;;;;;4897232;29;20029;-77
2020/12/26 11:36:27;;;;;;;4.53;3.00;;;-4.00;99.90;;;;;;4897457;29;20088;-75
2020/12/26 11:38:54;;;;;;;8.55;3.83;;;-4.00;99.90;;;;;;4897136;29;20377;-75
2020/12/26 11:41:22;;;;;;;6.45;2.72;;;-4.00;99.90;;;;;;4897344;29;20033;-79
2020/12/26 11:43:48;;;;;;;7.28;3.22;;;-4.00;99.90;;;;;;4896974;29;20036;-73
2020/12/26 11:46:14;;;;;;;5.25;3.20;;;-3.90;99.90;;;;;;4896985;29;20093;-72
2020/12/26 11:48:40;;;;;;;5.45;3.38;;;-3.90;99.90;;;;;;4897022;29;20028;-73
2020/12/26 11:51:07;;;;;;;4.88;3.13;;;-3.90;99.90;;;;;;4896911;29;20028;-71
2020/12/26 11:53:33;;;;;;;4.07;2.92;;;-3.80;99.90;;;;;;4896915;29;20063;-74
2020/12/26 11:55:59;;;;;;;5.88;3.13;;;-3.80;99.90;;;;;;4896985;29;20060;-74
2020/12/26 11:58:25;;;;;;;5.05;3.30;;;-3.80;99.90;;;;;;4891983;29;20028;-74
2020/12/26 12:00:54;;;;;;;4.75;3.03;;;-3.80;99.90;;;;;;4898120;29;20544;-75
2020/12/26 12:03:20;;;;;;;5.88;3.10;;;-3.60;99.90;;;;;;4904101;29;20044;-76
2020/12/26 12:05:46;;;;;;;4.78;2.90;;;-3.50;99.90;;;;;;4895253;29;20087;-82
2020/12/26 12:08:13;;;;;;;7.65;3.10;;;-3.40;99.90;;;;;;4888873;29;20036;-82
2020/12/26 12:10:40;;;;;;;6.35;3.03;;;-3.40;99.90;;;;;;4895443;29;20025;-81
2020/12/26 12:13:07;;;;;;;5.53;2.60;;;-3.40;99.90;;;;;;4896442;29;20532;-80
2020/12/26 12:15:33;;;;;;;6.90;3.15;;;-3.50;99.90;;;;;;4897133;29;20033;-86
2020/12/26 12:18:02;;;;;;;5.80;2.97;;;-3.50;99.90;;;;;;4897190;29;20032;-85
2020/12/26 12:20:31;;;;;;;4.72;3.15;;;-3.50;99.90;;;;;;4897815;29;20500;-89
2020/12/26 12:22:57;;;;;;;5.60;2.97;;;-3.50;99.90;;;;;;4897226;29;20116;-83
2020/12/26 12:25:25;;;;;;;4.88;3.33;;;-3.50;99.90;;;;;;4897324;29;20028;-83
2020/12/26 12:27:51;;;;;;;5.10;3.28;;;-3.60;99.90;;;;;;4897046;29;20057;-84
2020/12/26 12:30:17;;;;;;;4.93;3.10;;;-3.60;99.90;;;;;;4897406;29;20585;-82
2020/12/26 12:32:43;;;;;;;6.53;3.00;;;-3.70;99.90;;;;;;4889879;29;20058;-86
2020/12/26 12:35:10;;;;;;;4.47;2.85;;;-3.60;99.90;;;;;;4890815;29;20109;-83
2020/12/26 12:37:36;;;;;;;3.97;3.03;;;-3.60;99.90;;;;;;4899891;29;20029;-84
2020/12/26 12:40:06;;;;;;;7.25;3.00;;;-3.70;99.90;;;;;;4913883;29;20047;-84
2020/12/26 12:42:32;;;;;;;5.53;2.80;;;-3.60;99.90;;;;;;4886844;29;20032;-88
2020/12/26 12:44:58;;;;;;;7.93;4.25;;;-3.60;99.90;;;;;;4914386;29;20793;-81
2020/12/26 12:47:25;;;;;;;6.25;3.75;;;-3.60;99.90;;;;;;4915774;29;20132;-83
2020/12/26 12:49:51;;;;;;;5.82;3.40;;;-3.60;99.90;;;;;;4892153;29;20124;-78
2020/12/26 12:52:18;;;;;;;6.72;2.63;;;-3.60;99.90;;;;;;4896889;29;20107;-81
2020/12/26 12:54:44;;;;;;;5.10;3.47;;;-2.10;99.90;;;;;;4884444;29;20033;-84
2020/12/26 12:57:09;;;;;;;5.75;2.95;;;0.20;99.90;;;;;;4881712;29;20392;-83
2020/12/26 12:59:36;;;;;;;4.80;2.63;;;-0.50;99.90;;;;;;4881466;29;20366;-83
2020/12/26 13:02:03;;;;;;;5.72;2.80;;;-1.60;99.90;;;;;;4881359;29;20035;-83
2020/12/26 13:04:29;;;;;;;3.45;2.45;;;-2.40;99.90;;;;;;4881147;29;20048;-83
2020/12/26 13:06:55;;;;;;;4.20;2.25;;;-2.70;99.90;;;;;;4882239;29;20032;-83
2020/12/26 13:09:20;;;;;;;4.45;2.80;;;-3.00;99.90;;;;;;4881787;29;20037;-82
2020/12/26 13:11:47;;;;;;;4.93;2.67;;;-3.20;99.90;;;;;;4881285;29;20032;-82
2020/12/26 13:14:13;;;;;;;5.13;3.40;;;-3.30;99.90;;;;;;4881755;29;20485;-83
2020/12/26 13:16:39;;;;;;;5.10;3.38;;;-3.30;99.90;;;;;;4881556;29;20033;-82
2020/12/26 13:19:05;;;;;;;6.35;3.20;;;-3.30;99.90;;;;;;4881682;29;20136;-83
2020/12/26 13:21:31;;;;;;;5.53;3.53;;;-3.20;99.90;;;;;;4880918;29;20066;-82
2020/12/26 13:23:57;;;;;;;6.22;3.83;;;-3.30;99.90;;;;;;4881200;29;20132;-83
2020/12/26 13:26:24;;;;;;;3.60;2.42;;;-3.40;99.90;;;;;;4881434;29;20062;-83
2020/12/26 13:28:50;;;;;;;7.07;4.00;;;-3.20;99.90;;;;;;4881014;29;20036;-78
2020/12/26 13:31:25;;;;;;;9.27;5.93;;;-3.20;99.90;;;;;;4898108;29;20025;-86
2020/12/26 13:33:52;;;;;;;5.05;3.90;;;-3.20;99.90;;;;;;4909806;29;20040;-79
2020/12/26 13:36:17;;;;;;;5.72;3.22;;;-3.30;99.90;;;;;;4897175;29;20028;-82
2020/12/26 13:38:43;;;;;;;6.00;4.63;;;-3.30;99.90;;;;;;4879925;29;20035;-80
2020/12/26 13:41:09;;;;;;;5.10;3.78;;;-3.30;99.90;;;;;;4880391;29;20374;-79
2020/12/26 13:43:35;;;;;;;5.00;3.45;;;-3.30;99.90;;;;;;4880664;29;20047;-80
2020/12/26 13:46:00;;;;;;;5.75;3.03;;;-3.50;99.90;;;;;;4880637;29;20112;-78
2020/12/26 13:48:26;;;;;;;4.18;3.00;;;-3.50;99.90;;;;;;4880401;29;20033;-78
2020/12/26 13:50:52;;;;;;;7.00;3.10;;;-3.60;99.90;;;;;;4880207;29;20025;-80
2020/12/26 13:53:18;;;;;;;6.70;3.47;;;-3.60;99.90;;;;;;4880590;29;20128;-79
2020/12/26 13:55:44;;;;;;;8.55;3.53;;;-3.50;99.90;;;;;;4880385;29;20029;-77
2020/12/26 13:58:10;;;;;;;6.78;3.45;;;-3.40;99.90;;;;;;4880349;29;20441;-77
2020/12/26 14:00:35;;;;;;;4.53;2.97;;;-3.40;99.90;;;;;;4880073;29;20485;-78
2020/12/26 14:03:01;;;;;;;5.22;3.17;;;-3.40;99.90;;;;;;4880152;29;20081;-78
2020/12/26 14:05:27;;;;;;;5.38;3.08;;;-3.40;99.90;;;;;;4879202;29;20026;-82
2020/12/26 14:07:53;;;;;;;7.20;3.67;;;-3.30;99.90;;;;;;4880164;29;20039;-83
2020/12/26 14:10:19;;;;;;;6.90;3.85;;;-3.30;99.90;;;;;;4880130;29;20382;-81
2020/12/26 14:12:44;;;;;;;7.90;3.58;;;-3.40;99.90;;;;;;4880304;29;20025;-81
2020/12/26 14:15:10;;;;;;;4.65;3.25;;;-3.40;99.90;;;;;;4880148;29;20543;-82
2020/12/26 14:17:36;;;;;;;8.50;3.33;;;-3.30;99.90;;;;;;4880259;29;20036;-82
2020/12/26 14:20:03;;;;;;;6.45;3.40;;;-3.40;99.90;;;;;;4880312;29;20092;-84
2020/12/26 14:22:29;;;;;;;6.22;3.38;;;-3.30;99.90;;;;;;4880780;29;20096;-85
2020/12/26 14:24:57;;;;;;;3.50;2.92;;;-3.30;99.90;;;;;;4880328;29;20489;-87
2020/12/26 14:27:24;;;;;;;5.78;3.20;;;-3.30;99.90;;;;;;4880285;29;20025;-84
2020/12/26 14:29:50;;;;;;;6.55;3.50;;;-3.20;99.90;;;;;;4880072;29;20135;-85
2020/12/26 14:32:16;;;;;;;6.18;3.65;;;-3.30;99.90;;;;;;4880179;29;20017;-87
2020/12/26 14:34:42;;;;;;;5.47;3.35;;;-3.30;99.90;;;;;;4880565;29;20405;-86
2020/12/26 14:37:09;;;;;;;5.22;3.30;;;-3.30;99.90;;;;;;4880749;29;20033;-86
2020/12/26 14:39:34;;;;;;;4.60;3.22;;;-3.30;99.90;;;;;;4880780;29;20041;-87
2020/12/26 14:42:02;;;;;;;6.50;3.05;;;-3.20;99.90;;;;;;4880417;29;20481;-88
2020/12/26 14:44:28;;;;;;;4.82;3.30;;;-3.20;99.90;;;;;;4879540;29;20101;-87
2020/12/26 14:46:54;;;;;;;6.13;3.30;;;-3.20;99.90;;;;;;4880431;29;20056;-87
2020/12/26 14:49:20;;;;;;;6.25;3.92;;;-3.20;99.90;;;;;;4894337;29;20072;-86
2020/12/26 14:51:53;;;;;;;5.68;3.63;;;-3.20;99.90;;;;;;4879636;29;20029;-85
2020/12/26 14:54:19;;;;;;;5.65;3.75;;;-3.20;99.90;;;;;;4879344;29;20076;-81
2020/12/26 14:56:53;;;;;;;5.32;3.50;;;-3.10;99.90;;;;;;4878204;29;20038;-80
2020/12/26 14:59:20;;;;;;;4.43;3.13;;;-3.20;99.90;;;;;;4886872;29;20037;-79
2020/12/26 15:01:45;;;;;;;5.00;3.20;;;-3.10;99.90;;;;;;4893824;29;20016;-80
2020/12/26 15:04:11;;;;;;;6.07;3.33;;;-3.10;99.90;;;;;;4897820;29;20404;-81
2020/12/26 15:06:37;;;;;;;5.93;3.67;;;-3.10;99.90;;;;;;4898028;29;20028;-82
2020/12/26 15:09:09;;;;;;;5.70;3.05;;;-3.30;99.90;;;;;;4898204;29;20037;-86
2020/12/26 15:11:36;;;;;;;7.07;3.33;;;-3.40;99.90;;;;;;4896297;29;20032;-80
2020/12/26 15:14:03;;;;;;;8.10;3.97;;;-3.30;99.90;;;;;;4886513;29;20041;-83
2020/12/26 15:16:29;;;;;;;5.45;3.33;;;-3.20;99.90;;;;;;4878938;29;20044;-84
2020/12/26 15:18:54;;;;;;;4.65;3.30;;;-3.20;99.90;;;;;;4878862;29;20464;-81
2020/12/26 15:21:20;;;;;;;5.80;3.63;;;-3.20;99.90;;;;;;4879221;29;20070;-87
2020/12/26 15:23:46;;;;;;;5.97;3.33;;;-3.20;99.90;;;;;;4879115;29;20158;-80
2020/12/26 15:26:12;;;;;;;6.25;3.40;;;-3.20;99.90;;;;;;4879043;29;20378;-80
2020/12/26 15:28:38;;;;;;;5.95;3.50;;;-3.10;99.90;;;;;;4878672;29;20036;-81
2020/12/26 15:31:05;;;;;;;4.57;3.20;;;-3.10;99.90;;;;;;4878983;29;20021;-84
2020/12/26 15:33:31;;;;;;;5.63;3.28;;;-3.20;99.90;;;;;;4883963;29;20054;-85
2020/12/26 15:35:56;;;;;;;6.50;3.42;;;-3.20;99.90;;;;;;4887315;29;20059;-85
2020/12/26 15:38:23;;;;;;;6.20;3.28;;;-3.20;99.90;;;;;;4877410;29;20033;-82
2020/12/26 15:40:49;;;;;;;9.82;4.57;;;-3.20;99.90;;;;;;4878661;29;20033;-85
2020/12/26 15:43:15;;;;;;;8.38;4.90;;;-3.20;99.90;;;;;;4878717;29;20115;-86
2020/12/26 15:45:42;;;;;;;10.07;4.70;;;-3.20;99.90;;;;;;4878798;29;20037;-86
2020/12/26 15:48:08;;;;;;;14.90;6.22;;;-3.10;99.90;;;;;;4878913;29;20056;-85
2020/12/26 15:50:34;;;;;;;8.77;5.20;;;-3.10;99.90;;;;;;4878602;29;20025;-85
2020/12/26 15:53:00;;;;;;;10.27;4.47;;;-3.10;99.90;;;;;;4878484;29;20089;-85
2020/12/26 15:55:26;;;;;;;10.48;4.80;;;-3.00;99.90;;;;;;4878474;29;20033;-85
2020/12/26 15:57:52;;;;;;;7.38;3.55;;;-3.00;99.90;;;;;;4878986;29;20032;-87
2020/12/26 16:00:18;;;;;;;8.93;4.13;;;-3.00;99.90;;;;;;4879116;29;20128;-87
2020/12/26 16:02:44;;;;;;;7.50;3.90;;;-3.00;99.90;;;;;;4879103;29;20036;-85
2020/12/26 16:05:10;;;;;;;9.77;5.03;;;-3.00;99.90;;;;;;4878738;29;20060;-79
2020/12/26 16:07:36;;;;;;;9.68;4.88;;;-3.00;99.90;;;;;;4878199;29;20042;-82
2020/12/26 16:10:04;;;;;;;7.00;4.43;;;-2.90;99.90;;;;;;4878249;29;20025;-81
2020/12/26 16:12:29;;;;;;;5.63;3.50;;;-2.90;99.90;;;;;;4878245;29;20385;-82
2020/12/26 16:14:55;;;;;;;7.30;3.67;;;-3.00;99.90;;;;;;4878139;29;20032;-81
2020/12/26 16:17:21;;;;;;;7.43;3.75;;;-2.90;99.90;;;;;;4878023;29;20025;-82
2020/12/26 16:19:46;;;;;;;7.70;4.30;;;-3.00;99.90;;;;;;4877922;29;20514;-79
2020/12/26 16:22:12;;;;;;;7.88;4.13;;;-3.00;99.90;;;;;;4879036;29;20070;-87
2020/12/26 16:24:38;;;;;;;4.85;3.40;;;-3.00;99.90;;;;;;4878553;29;20041;-81
2020/12/26 16:27:05;;;;;;;4.35;3.65;;;-3.10;99.90;;;;;;4877937;29;20051;-81
2020/12/26 16:29:30;;;;;;;8.50;3.90;;;-3.10;99.90;;;;;;4880297;29;20029;-82
2020/12/26 16:31:56;;;;;;;7.30;3.75;;;-3.10;99.90;;;;;;4881519;29;20052;-82
2020/12/26 16:34:22;;;;;;;4.82;3.45;;;-3.10;99.90;;;;;;4881538;29;20065;-81
2020/12/26 16:36:48;;;;;;;8.07;4.00;;;-3.20;99.90;;;;;;4881496;29;20500;-82
2020/12/26 16:39:14;;;;;;;7.25;4.07;;;-3.20;99.90;;;;;;4881715;29;20029;-81
2020/12/26 16:41:40;;;;;;;5.38;3.35;;;-3.10;99.90;;;;;;4881659;29;20561;-81
2020/12/26 16:44:06;;;;;;;6.85;4.20;;;-3.20;99.90;;;;;;4881413;29;20120;-82
2020/12/26 16:46:32;;;;;;;8.38;3.92;;;-3.20;99.90;;;;;;4886288;29;20033;-80
2020/12/26 16:48:58;;;;;;;6.50;3.53;;;-3.20;99.90;;;;;;4891416;29;20024;-77
2020/12/26 16:51:25;;;;;;;6.82;3.38;;;-3.20;99.90;;;;;;4889877;29;20028;-79
2020/12/26 16:53:51;;;;;;;6.75;3.72;;;-3.20;99.90;;;;;;4900080;29;20088;-77
2020/12/26 16:56:19;;;;;;;8.75;3.85;;;-3.20;99.90;;;;;;4898789;29;20092;-76
2020/12/26 16:58:45;;;;;;;6.50;3.97;;;-3.20;99.90;;;;;;4901341;29;20057;-76
2020/12/26 17:01:19;;;;;;;4.45;3.42;;;-3.20;99.90;;;;;;4899903;29;20473;-80
2020/12/26 17:03:45;;;;;;;8.93;4.00;;;-3.20;99.90;;;;;;4894249;29;20044;-77
2020/12/26 17:06:19;;;;;;;5.50;3.33;;;-3.20;99.90;;;;;;4896183;29;20057;-88
2020/12/26 17:08:46;;;;;;;5.95;3.58;;;-3.20;99.90;;;;;;4900745;29;20088;-85
2020/12/26 17:11:12;;;;;;;6.63;3.85;;;-3.30;99.90;;;;;;4902959;29;20024;-72
2020/12/26 17:13:39;;;;;;;6.63;3.58;;;-3.10;99.90;;;;;;4900392;29;20080;-86
2020/12/26 17:16:16;;;;;;;11.75;5.72;;;-2.50;99.90;;;;;;4899304;29;20481;-89
2020/12/26 17:18:43;;;;;;;9.55;4.80;;;-2.60;99.90;;;;;;4900758;29;20104;-87
2020/12/26 17:21:16;;;;;;;10.45;5.25;;;-2.80;99.90;;;;;;4900268;29;20056;-85
2020/12/26 17:23:42;;;;;;;10.43;4.35;;;-3.00;99.90;;;;;;4900286;29;20100;-87
2020/12/26 17:26:19;;;;;;;5.15;3.25;;;-3.10;99.90;;;;;;4900356;29;20033;-88
2020/12/26 17:28:45;;;;;;;5.55;4.05;;;-3.10;99.90;;;;;;4900542;29;20029;-87
2020/12/26 17:31:30;;;;;;;8.20;3.70;;;-3.10;99.90;;;;;;4900654;29;20032;-88
2020/12/26 17:33:57;;;;;;;6.13;3.67;;;-3.10;99.90;;;;;;4900252;29;20507;-87
2020/12/26 17:36:24;;;;;;;4.05;3.55;;;-3.00;99.90;;;;;;4900506;29;20076;-86
2020/12/26 17:38:52;;;;;;;5.55;3.72;;;-3.00;99.90;;;;;;4900737;29;20079;-88
2020/12/26 17:41:21;;;;;;;4.95;3.67;;;-3.00;99.90;;;;;;4899392;29;20032;-72
2020/12/26 17:43:47;;;;;;;4.35;3.00;;;-2.70;99.90;;;;;;4899162;29;20389;-72
2020/12/26 17:46:27;;;;;;;6.07;3.92;;;-2.70;99.90;;;;;;4899343;29;20028;-72
2020/12/26 17:48:57;;;;;;;5.68;3.60;;;-2.70;99.90;;;;;;4899076;29;20504;-72
2020/12/26 17:51:23;;;;;;;5.18;3.42;;;-2.70;99.90;;;;;;4899084;29;20033;-78
2020/12/26 17:53:49;;;;;;;5.07;3.15;;;-2.70;99.90;;;;;;4898988;29;20072;-77
2020/12/26 17:56:16;;;;;;;4.30;2.85;;;-2.70;99.90;;;;;;4898939;29;20025;-81
2020/12/26 17:58:43;;;;;;;5.47;2.88;;;-2.70;99.90;;;;;;4899077;29;20036;-84
2020/12/26 18:01:10;;;;;;;5.55;3.20;;;-2.80;99.90;;;;;;4898863;29;20029;-82
2020/12/26 18:03:37;;;;;;;6.45;3.20;;;-2.80;99.90;;;;;;4898726;29;20509;-81
2020/12/26 18:06:05;;;;;;;7.63;3.33;;;-2.80;99.90;;;;;;4898723;29;20032;-80
2020/12/26 18:08:31;;;;;;;6.88;3.63;;;-2.80;99.90;;;;;;4898764;29;20635;-84